sensor_id;sensor_type;location;lat;lon;timestamp;pressure;altitude;pressure_sealevel;temperature;humidity
67697;BME280;54486;51.442;6.778;2023-04-30T00:01:11;102064.25;;;8.92;93.74
67697;BME280;54486;51.442;6.778;2023-04-30T00:03:38;102067.63;;;8.88;93.52
67697;BME280;54486;51.442;6.778;2023-04-30T00:06:05;102061.53;;;8.86;94.27
67697;BME280;54486;51.442;6.778;2023-04-30T00:08:32;102051.91;;;8.82;94.96
67697;BME280;54486;51.442;6.778;2023-04-30T00:10:59;102064.03;;;8.82;95.13
67697;BME280;54486;51.442;6.778;2023-04-30T00:13:26;102063.09;;;8.78;95.37
67697;BME280;54486;51.442;6.778;2023-04-30T00:15:53;102064.75;;;8.75;95.24
67697;BME280;54486;51.442;6.778;2023-04-30T00:18:20;102070.72;;;8.69;95.23
67697;BME280;54486;51.442;6.778;2023-04-30T00:20:47;102071.53;;;8.67;95.82
67697;BME280;54486;51.442;6.778;2023-04-30T00:23:14;102065.38;;;8.63;96.03
67697;BME280;54486;51.442;6.778;2023-04-30T00:25:41;102077.50;;;8.61;96.39
67697;BME280;54486;51.442;6.778;2023-04-30T00:28:08;102073.94;;;8.58;96.34
67697;BME280;54486;51.442;6.778;2023-04-30T00:30:35;102079.09;;;8.56;96.45
67697;BME280;54486;51.442;6.778;2023-04-30T00:33:03;102084.28;;;8.55;97.15
67697;BME280;54486;51.442;6.778;2023-04-30T00:35:30;102091.13;;;8.51;97.94
67697;BME280;54486;51.442;6.778;2023-04-30T00:37:57;102080.66;;;8.48;97.82
67697;BME280;54486;51.442;6.778;2023-04-30T00:40:24;102082.34;;;8.46;98.28
67697;BME280;54486;51.442;6.778;2023-04-30T00:42:52;102079.72;;;8.44;97.97
67697;BME280;54486;51.442;6.778;2023-04-30T00:45:21;102082.28;;;8.43;98.26
67697;BME280;54486;51.442;6.778;2023-04-30T00:47:49;102085.75;;;8.42;97.71
67697;BME280;54486;51.442;6.778;2023-04-30T00:50:17;102080.53;;;8.42;97.95
67697;BME280;54486;51.442;6.778;2023-04-30T00:52:45;102082.19;;;8.40;98.51
67697;BME280;54486;51.442;6.778;2023-04-30T00:55:12;102084.81;;;8.40;98.60
67697;BME280;54486;51.442;6.778;2023-04-30T00:57:40;102083.91;;;8.38;98.68
67697;BME280;54486;51.442;6.778;2023-04-30T01:00:09;102078.69;;;8.38;98.32
67697;BME280;54486;51.442;6.778;2023-04-30T01:02:37;102076.94;;;8.37;98.47
67697;BME280;54486;51.442;6.778;2023-04-30T01:05:06;102076.94;;;8.37;98.00
67697;BME280;54486;51.442;6.778;2023-04-30T01:07:34;102078.63;;;8.35;97.75
67697;BME280;54486;51.442;6.778;2023-04-30T01:10:01;102078.63;;;8.35;98.34
67697;BME280;54486;51.442;6.778;2023-04-30T01:12:55;102075.09;;;8.33;98.18
67697;BME280;54486;51.442;6.778;2023-04-30T01:18:06;102076.63;;;8.25;98.83
67697;BME280;54486;51.442;6.778;2023-04-30T01:20:42;102076.56;;;8.22;99.08
67697;BME280;54486;51.442;6.778;2023-04-30T01:23:52;102070.47;;;8.20;98.92
67697;BME280;54486;51.442;6.778;2023-04-30T01:29:09;102066.84;;;8.13;99.51
67697;BME280;54486;51.442;6.778;2023-04-30T01:31:37;102068.50;;;8.11;100.00
67697;BME280;54486;51.442;6.778;2023-04-30T01:34:04;102071.00;;;8.07;100.00
67697;BME280;54486;51.442;6.778;2023-04-30T01:44:22;102068.97;;;7.93;100.00
67697;BME280;54486;51.442;6.778;2023-04-30T01:50:09;102068.88;;;7.90;100.00
67697;BME280;54486;51.442;6.778;2023-04-30T01:52:45;102070.56;;;7.88;100.00
67697;BME280;54486;51.442;6.778;2023-04-30T01:55:20;102072.25;;;7.86;100.00
67697;BME280;54486;51.442;6.778;2023-04-30T01:57:58;102066.97;;;7.83;100.00
67697;BME280;54486;51.442;6.778;2023-04-30T02:00:27;102072.19;;;7.83;100.00
67697;BME280;54486;51.442;6.778;2023-04-30T02:02:55;102066.97;;;7.83;100.00
67697;BME280;54486;51.442;6.778;2023-04-30T02:05:22;102080.72;;;7.79;100.00
67697;BME280;54486;51.442;6.778;2023-04-30T02:07:50;102085.03;;;7.79;100.00
67697;BME280;54486;51.442;6.778;2023-04-30T02:10:20;102082.50;;;7.80;100.00
67697;BME280;54486;51.442;6.778;2023-04-30T02:12:48;102077.22;;;7.77;100.00
67697;BME280;54486;51.442;6.778;2023-04-30T02:15:15;102085.84;;;7.76;100.00
67697;BME280;54486;51.442;6.778;2023-04-30T02:17:42;102080.66;;;7.76;100.00
67697;BME280;54486;51.442;6.778;2023-04-30T02:20:09;102080.66;;;7.76;100.00
67697;BME280;54486;51.442;6.778;2023-04-30T02:22:36;102081.47;;;7.74;100.00
67697;BME280;54486;51.442;6.778;2023-04-30T02:25:04;102077.97;;;7.72;100.00
67697;BME280;54486;51.442;6.778;2023-04-30T02:27:32;102070.94;;;7.69;100.00
67697;BME280;54486;51.442;6.778;2023-04-30T02:29:59;102071.75;;;7.67;100.00
67697;BME280;54486;51.442;6.778;2023-04-30T02:32:26;102079.53;;;7.65;100.00
67697;BME280;54486;51.442;6.778;2023-04-30T02:34:53;102082.03;;;7.62;100.00
67697;BME280;54486;51.442;6.778;2023-04-30T02:37:21;102073.25;;;7.57;100.00
67697;BME280;54486;51.442;6.778;2023-04-30T02:39:48;102073.16;;;7.54;100.00
67697;BME280;54486;51.442;6.778;2023-04-30T02:42:16;102074.84;;;7.52;100.00
67697;BME280;54486;51.442;6.778;2023-04-30T02:44:42;102079.97;;;7.49;100.00
67697;BME280;54486;51.442;6.778;2023-04-30T02:47:10;102079.91;;;7.47;100.00
67697;BME280;54486;51.442;6.778;2023-04-30T02:49:37;102080.59;;;7.40;100.00
67697;BME280;54486;51.442;6.778;2023-04-30T02:52:04;102084.84;;;7.37;100.00
67697;BME280;54486;51.442;6.778;2023-04-30T02:54:32;102082.25;;;7.37;100.00
67697;BME280;54486;51.442;6.778;2023-04-30T02:56:59;102075.22;;;7.33;100.00
67697;BME280;54486;51.442;6.778;2023-04-30T02:59:26;102079.47;;;7.31;100.00
67697;BME280;54486;51.442;6.778;2023-04-30T03:01:53;102075.97;;;7.29;100.00
67697;BME280;54486;51.442;6.778;2023-04-30T03:04:20;102075.94;;;7.27;100.00
67697;BME280;54486;51.442;6.778;2023-04-30T03:06:47;102082.03;;;7.29;100.00
67697;BME280;54486;51.442;6.778;2023-04-30T03:09:14;102069.84;;;7.27;100.00
67697;BME280;54486;51.442;6.778;2023-04-30T03:11:41;102079.38;;;7.28;100.00
67697;BME280;54486;51.442;6.778;2023-04-30T03:14:09;102072.44;;;7.27;100.00
67697;BME280;54486;51.442;6.778;2023-04-30T03:16:36;102078.41;;;7.24;100.00
67697;BME280;54486;51.442;6.778;2023-04-30T03:19:03;102076.72;;;7.25;100.00
67697;BME280;54486;51.442;6.778;2023-04-30T03:21:30;102081.00;;;7.23;100.00
67697;BME280;54486;51.442;6.778;2023-04-30T03:23:57;102072.28;;;7.21;100.00
67697;BME280;54486;51.442;6.778;2023-04-30T03:26:24;102071.34;;;7.19;100.00
67697;BME280;54486;51.442;6.778;2023-04-30T03:28:52;102077.41;;;7.18;100.00
67697;BME280;54486;51.442;6.778;2023-04-30T03:31:21;102072.09;;;7.15;100.00
67697;BME280;54486;51.442;6.778;2023-04-30T03:33:48;102067.63;;;7.09;100.00
67697;BME280;54486;51.442;6.778;2023-04-30T03:36:15;102068.50;;;7.10;100.00
67697;BME280;54486;51.442;6.778;2023-04-30T03:38:42;102068.50;;;7.10;100.00
67697;BME280;54486;51.442;6.778;2023-04-30T03:41:10;102069.34;;;7.09;100.00
67697;BME280;54486;51.442;6.778;2023-04-30T03:43:37;102068.50;;;7.10;100.00
67697;BME280;54486;51.442;6.778;2023-04-30T03:46:04;102066.75;;;7.09;100.00
67697;BME280;54486;51.442;6.778;2023-04-30T03:48:31;102075.38;;;7.08;100.00
67697;BME280;54486;51.442;6.778;2023-04-30T03:50:58;102072.78;;;7.08;100.00
67697;BME280;54486;51.442;6.778;2023-04-30T03:53:25;102076.16;;;7.05;100.00
67697;BME280;54486;51.442;6.778;2023-04-30T03:55:52;102076.97;;;7.03;100.00
67697;BME280;54486;51.442;6.778;2023-04-30T03:58:20;102085.59;;;7.02;100.00
67697;BME280;54486;51.442;6.778;2023-04-30T04:00:47;102078.66;;;7.01;100.00
67697;BME280;54486;51.442;6.778;2023-04-30T04:03:15;102075.97;;;6.98;100.00
67697;BME280;54486;51.442;6.778;2023-04-30T04:05:42;102075.91;;;6.96;100.00
67697;BME280;54486;51.442;6.778;2023-04-30T04:08:10;102078.56;;;6.98;100.00
67697;BME280;54486;51.442;6.778;2023-04-30T04:10:37;102077.53;;;6.92;100.00
67697;BME280;54486;51.442;6.778;2023-04-30T04:13:05;102080.97;;;6.91;100.00
67697;BME280;54486;51.442;6.778;2023-04-30T04:15:33;102076.63;;;6.90;100.00
67697;BME280;54486;51.442;6.778;2023-04-30T04:18:00;102076.63;;;6.90;100.00
67697;BME280;54486;51.442;6.778;2023-04-30T04:20:27;102089.59;;;6.90;100.00
67697;BME280;54486;51.442;6.778;2023-04-30T04:22:55;102085.22;;;6.89;100.00
67697;BME280;54486;51.442;6.778;2023-04-30T04:25:23;102091.38;;;6.91;100.00
67697;BME280;54486;51.442;6.778;2023-04-30T04:27:53;102087.72;;;6.85;100.00
67697;BME280;54486;51.442;6.778;2023-04-30T04:30:20;102092.91;;;6.85;100.00
67697;BME280;54486;51.442;6.778;2023-04-30T04:32:47;102092.03;;;6.84;100.00
67697;BME280;54486;51.442;6.778;2023-04-30T04:35:17;102101.59;;;6.87;100.00
67697;BME280;54486;51.442;6.778;2023-04-30T04:37:45;102093.72;;;6.84;100.00
67697;BME280;54486;51.442;6.778;2023-04-30T04:40:12;102095.53;;;6.86;100.00
67697;BME280;54486;51.442;6.778;2023-04-30T04:42:39;102093.88;;;6.88;100.00
67697;BME280;54486;51.442;6.778;2023-04-30T04:45:07;102096.47;;;6.88;100.00
67697;BME280;54486;51.442;6.778;2023-04-30T04:47:34;102092.19;;;6.90;100.00
67697;BME280;54486;51.442;6.778;2023-04-30T04:50:02;102094.88;;;6.93;100.00
67697;BME280;54486;51.442;6.778;2023-04-30T04:52:29;102099.31;;;6.98;100.00
67697;BME280;54486;51.442;6.778;2023-04-30T04:54:56;102105.47;;;7.01;100.00
67697;BME280;54486;51.442;6.778;2023-04-30T04:57:23;102096.06;;;7.05;100.00
67697;BME280;54486;51.442;6.778;2023-04-30T04:59:50;102095.28;;;7.07;100.00
67697;BME280;54486;51.442;6.778;2023-04-30T05:02:17;102101.44;;;7.11;100.00
67697;BME280;54486;51.442;6.778;2023-04-30T05:04:44;102104.94;;;7.13;100.00
67697;BME280;54486;51.442;6.778;2023-04-30T05:07:12;102097.19;;;7.14;100.00
67697;BME280;54486;51.442;6.778;2023-04-30T05:09:40;102105.09;;;7.19;100.00
67697;BME280;54486;51.442;6.778;2023-04-30T05:12:06;102108.63;;;7.21;100.00
67697;BME280;54486;51.442;6.778;2023-04-30T05:14:34;102108.72;;;7.24;100.00
67697;BME280;54486;51.442;6.778;2023-04-30T05:17:02;102110.53;;;7.28;100.00
67697;BME280;54486;51.442;6.778;2023-04-30T05:19:29;102102.00;;;7.32;100.00
67697;BME280;54486;51.442;6.778;2023-04-30T05:21:56;102097.72;;;7.34;100.00
67697;BME280;54486;51.442;6.778;2023-04-30T05:24:23;102100.44;;;7.37;100.00
67697;BME280;54486;51.442;6.778;2023-04-30T05:26:50;102098.81;;;7.42;100.00
67697;BME280;54486;51.442;6.778;2023-04-30T05:29:17;102105.88;;;7.46;100.00
67697;BME280;54486;51.442;6.778;2023-04-30T05:31:44;102112.03;;;7.50;100.00
67697;BME280;54486;51.442;6.778;2023-04-30T05:34:11;102112.94;;;7.53;100.00
67697;BME280;54486;51.442;6.778;2023-04-30T05:36:38;102123.53;;;7.59;100.00
67697;BME280;54486;51.442;6.778;2023-04-30T05:39:05;102117.59;;;7.65;100.00
67697;BME280;54486;51.442;6.778;2023-04-30T05:41:32;102116.88;;;7.70;100.00
67697;BME280;54486;51.442;6.778;2023-04-30T05:43:59;102118.72;;;7.74;100.00
67697;BME280;54486;51.442;6.778;2023-04-30T05:46:28;102128.38;;;7.80;100.00
67697;BME280;54486;51.442;6.778;2023-04-30T05:48:55;102124.16;;;7.83;100.00
67697;BME280;54486;51.442;6.778;2023-04-30T05:51:22;102124.28;;;7.89;100.00
67697;BME280;54486;51.442;6.778;2023-04-30T05:53:48;102129.56;;;7.92;100.00
67697;BME280;54486;51.442;6.778;2023-04-30T05:56:16;102138.38;;;7.97;100.00
67697;BME280;54486;51.442;6.778;2023-04-30T05:58:43;102135.88;;;8.02;100.00
67697;BME280;54486;51.442;6.778;2023-04-30T06:01:10;102133.41;;;8.07;100.00
67697;BME280;54486;51.442;6.778;2023-04-30T06:03:37;102130.91;;;8.11;100.00
67697;BME280;54486;51.442;6.778;2023-04-30T06:06:05;102136.25;;;8.17;100.00
67697;BME280;54486;51.442;6.778;2023-04-30T06:08:32;102128.63;;;8.25;100.00
67697;BME280;54486;51.442;6.778;2023-04-30T06:10:59;102121.84;;;8.30;100.00
67697;BME280;54486;51.442;6.778;2023-04-30T06:13:26;102132.41;;;8.36;100.00
67697;BME280;54486;51.442;6.778;2023-04-30T06:15:53;102134.22;;;8.40;100.00
67697;BME280;54486;51.442;6.778;2023-04-30T06:18:20;102122.22;;;8.45;100.00
67697;BME280;54486;51.442;6.778;2023-04-30T06:20:48;102119.78;;;8.52;100.00
67697;BME280;54486;51.442;6.778;2023-04-30T06:23:15;102124.25;;;8.58;100.00
67697;BME280;54486;51.442;6.778;2023-04-30T06:25:41;102119.19;;;8.64;100.00
67697;BME280;54486;51.442;6.778;2023-04-30T06:28:08;102123.63;;;8.70;100.00
67697;BME280;54486;51.442;6.778;2023-04-30T06:30:35;102126.41;;;8.77;100.00
67697;BME280;54486;51.442;6.778;2023-04-30T06:33:02;102128.22;;;8.81;100.00
67697;BME280;54486;51.442;6.778;2023-04-30T06:35:29;102130.09;;;8.88;100.00
67697;BME280;54486;51.442;6.778;2023-04-30T06:37:56;102132.84;;;8.94;99.28
67697;BME280;54486;51.442;6.778;2023-04-30T06:40:23;102125.13;;;8.99;98.97
67697;BME280;54486;51.442;6.778;2023-04-30T06:42:50;102128.69;;;9.02;98.37
67697;BME280;54486;51.442;6.778;2023-04-30T06:45:17;102128.81;;;9.09;97.76
67697;BME280;54486;51.442;6.778;2023-04-30T06:47:45;102123.72;;;9.15;96.89
67697;BME280;54486;51.442;6.778;2023-04-30T06:50:13;102129.03;;;9.21;97.25
67697;BME280;54486;51.442;6.778;2023-04-30T06:52:41;102125.66;;;9.25;97.16
67697;BME280;54486;51.442;6.778;2023-04-30T06:55:09;102131.00;;;9.31;97.01
67697;BME280;54486;51.442;6.778;2023-04-30T06:57:37;102121.53;;;9.36;96.38
67697;BME280;54486;51.442;6.778;2023-04-30T07:00:06;102123.34;;;9.41;96.30
67697;BME280;54486;51.442;6.778;2023-04-30T07:02:33;102126.13;;;9.49;95.71
67697;BME280;54486;51.442;6.778;2023-04-30T07:05:00;102131.44;;;9.55;95.37
67697;BME280;54486;51.442;6.778;2023-04-30T07:07:27;102119.38;;;9.60;95.55
67697;BME280;54486;51.442;6.778;2023-04-30T07:09:55;102123.00;;;9.68;94.83
67697;BME280;54486;51.442;6.778;2023-04-30T07:12:22;102123.09;;;9.74;94.47
67697;BME280;54486;51.442;6.778;2023-04-30T07:14:50;102122.31;;;9.78;94.22
67697;BME280;54486;51.442;6.778;2023-04-30T07:17:16;102121.56;;;9.85;93.60
67697;BME280;54486;51.442;6.778;2023-04-30T07:19:44;102118.19;;;9.92;93.34
67697;BME280;54486;51.442;6.778;2023-04-30T07:22:12;102118.31;;;9.98;92.66
67697;BME280;54486;51.442;6.778;2023-04-30T07:24:39;102115.81;;;10.04;92.62
67697;BME280;54486;51.442;6.778;2023-04-30T07:27:09;102115.03;;;10.11;92.28
67697;BME280;54486;51.442;6.778;2023-04-30T07:29:36;102112.53;;;10.16;92.06
67697;BME280;54486;51.442;6.778;2023-04-30T07:32:03;102119.63;;;10.25;91.52
67697;BME280;54486;51.442;6.778;2023-04-30T07:34:34;102112.75;;;10.30;91.25
67697;BME280;54486;51.442;6.778;2023-04-30T07:37:01;102115.47;;;10.36;91.08
67697;BME280;54486;51.442;6.778;2023-04-30T07:39:29;102108.56;;;10.41;90.42
67697;BME280;54486;51.442;6.778;2023-04-30T07:41:57;102107.84;;;10.49;89.51
67697;BME280;54486;51.442;6.778;2023-04-30T07:44:25;102112.34;;;10.61;89.08
67697;BME280;54486;51.442;6.778;2023-04-30T07:46:54;102115.19;;;10.79;88.21
67697;BME280;54486;51.442;6.778;2023-04-30T07:49:27;102115.22;;;10.82;88.10
67697;BME280;54486;51.442;6.778;2023-04-30T07:51:57;102113.59;;;10.90;87.41
67697;BME280;54486;51.442;6.778;2023-04-30T07:54:27;102121.53;;;10.96;87.01
67697;BME280;54486;51.442;6.778;2023-04-30T07:56:58;102118.94;;;11.01;86.91
67697;BME280;54486;51.442;6.778;2023-04-30T07:59:25;102120.75;;;11.05;86.97
67697;BME280;54486;51.442;6.778;2023-04-30T08:01:52;102126.88;;;11.08;86.51
67697;BME280;54486;51.442;6.778;2023-04-30T08:04:19;102122.53;;;11.10;86.89
67697;BME280;54486;51.442;6.778;2023-04-30T08:06:46;102119.13;;;11.13;85.74
67697;BME280;54486;51.442;6.778;2023-04-30T08:09:13;102129.56;;;11.14;85.58
67697;BME280;54486;51.442;6.778;2023-04-30T08:11:41;102121.75;;;11.18;85.18
67697;BME280;54486;51.442;6.778;2023-04-30T08:14:08;102114.88;;;11.23;84.94
67697;BME280;54486;51.442;6.778;2023-04-30T08:16:35;102124.50;;;11.30;85.21
67697;BME280;54486;51.442;6.778;2023-04-30T08:19:05;102121.94;;;11.33;84.90
67697;BME280;54486;51.442;6.778;2023-04-30T08:21:36;102120.22;;;11.35;84.87
67697;BME280;54486;51.442;6.778;2023-04-30T08:24:05;102118.56;;;11.41;84.84
67697;BME280;54486;51.442;6.778;2023-04-30T08:26:32;102116.94;;;11.51;85.28
67697;BME280;54486;51.442;6.778;2023-04-30T08:29:02;102111.72;;;11.54;83.87
67697;BME280;54486;51.442;6.778;2023-04-30T08:31:35;102117.88;;;11.60;82.75
67697;BME280;54486;51.442;6.778;2023-04-30T08:34:03;102116.22;;;11.67;83.34
67697;BME280;54486;51.442;6.778;2023-04-30T08:36:29;102112.84;;;11.74;83.34
67697;BME280;54486;51.442;6.778;2023-04-30T08:38:57;102110.31;;;11.83;81.98
67697;BME280;54486;51.442;6.778;2023-04-30T08:41:25;102119.97;;;11.92;82.28
67697;BME280;54486;51.442;6.778;2023-04-30T08:43:52;102119.19;;;12.05;81.39
67697;BME280;54486;51.442;6.778;2023-04-30T08:46:20;102121.00;;;12.13;81.02
67697;BME280;54486;51.442;6.778;2023-04-30T08:48:49;102121.00;;;12.13;79.85
67697;BME280;54486;51.442;6.778;2023-04-30T08:51:16;102114.13;;;12.25;79.54
67697;BME280;54486;51.442;6.778;2023-04-30T08:53:43;102118.44;;;12.21;79.55
67697;BME280;54486;51.442;6.778;2023-04-30T08:56:11;102114.16;;;12.31;78.41
67697;BME280;54486;51.442;6.778;2023-04-30T08:58:39;102119.47;;;12.43;78.65
67697;BME280;54486;51.442;6.778;2023-04-30T09:01:06;102109.94;;;12.52;78.45
67697;BME280;54486;51.442;6.778;2023-04-30T09:03:36;102109.09;;;12.61;78.68
67697;BME280;54486;51.442;6.778;2023-04-30T09:06:03;102107.41;;;12.66;78.03
67697;BME280;54486;51.442;6.778;2023-04-30T09:08:44;102107.41;;;12.66;77.39
67697;BME280;54486;51.442;6.778;2023-04-30T09:11:21;102098.63;;;12.61;76.83
67697;BME280;54486;51.442;6.778;2023-04-30T09:13:59;102107.38;;;12.63;76.52
67697;BME280;54486;51.442;6.778;2023-04-30T09:16:28;102103.03;;;12.66;76.51
67697;BME280;54486;51.442;6.778;2023-04-30T09:18:59;102101.28;;;12.70;76.74
67697;BME280;54486;51.442;6.778;2023-04-30T09:21:34;102096.97;;;12.77;76.69
67697;BME280;54486;51.442;6.778;2023-04-30T09:24:03;102097.03;;;12.83;76.58
67697;BME280;54486;51.442;6.778;2023-04-30T09:26:36;102095.31;;;12.92;76.31
67697;BME280;54486;51.442;6.778;2023-04-30T09:29:04;102097.06;;;13.02;76.17
67697;BME280;54486;51.442;6.778;2023-04-30T09:31:36;102094.53;;;13.10;74.93
67697;BME280;54486;51.442;6.778;2023-04-30T09:34:04;102091.94;;;13.20;73.35
67697;BME280;54486;51.442;6.778;2023-04-30T09:36:32;102081.47;;;13.23;73.38
67697;BME280;54486;51.442;6.778;2023-04-30T09:39:09;102081.47;;;13.31;73.46
67697;BME280;54486;51.442;6.778;2023-04-30T09:41:40;102073.63;;;13.36;71.67
67697;BME280;54486;51.442;6.778;2023-04-30T09:44:25;102077.16;;;13.62;72.74
67697;BME280;54486;51.442;6.778;2023-04-30T09:46:52;102076.31;;;13.72;71.75
67697;BME280;54486;51.442;6.778;2023-04-30T09:49:20;102078.03;;;13.76;71.31
67697;BME280;54486;51.442;6.778;2023-04-30T09:51:58;102067.53;;;13.73;70.41
67697;BME280;54486;51.442;6.778;2023-04-30T09:54:27;102062.28;;;13.73;70.35
67697;BME280;54486;51.442;6.778;2023-04-30T09:56:57;102064.94;;;13.74;70.50
67697;BME280;54486;51.442;6.778;2023-04-30T10:02:00;102062.28;;;13.91;70.63
67697;BME280;54486;51.442;6.778;2023-04-30T10:04:35;102060.56;;;13.93;68.61
67697;BME280;54486;51.442;6.778;2023-04-30T10:07:05;102057.03;;;13.91;68.75
67697;BME280;54486;51.442;6.778;2023-04-30T10:09:38;102052.66;;;13.98;68.14
67697;BME280;54486;51.442;6.778;2023-04-30T10:12:11;102049.13;;;14.17;68.60
67697;BME280;54486;51.442;6.778;2023-04-30T10:14:46;102058.75;;;14.31;66.81
67697;BME280;54486;51.442;6.778;2023-04-30T10:17:15;102061.38;;;14.31;67.16
67697;BME280;54486;51.442;6.778;2023-04-30T10:19:45;102055.25;;;14.45;66.31
67697;BME280;54486;51.442;6.778;2023-04-30T10:22:14;102055.25;;;14.45;65.84
67697;BME280;54486;51.442;6.778;2023-04-30T10:24:42;102049.09;;;14.58;66.67
67697;BME280;54486;51.442;6.778;2023-04-30T10:27:10;102038.53;;;14.70;64.76
67697;BME280;54486;51.442;6.778;2023-04-30T10:29:38;102035.75;;;14.97;63.70
67697;BME280;54486;51.442;6.778;2023-04-30T10:32:06;102038.41;;;14.96;65.20
67697;BME280;54486;51.442;6.778;2023-04-30T10:34:52;102034.88;;;14.98;65.42
67697;BME280;54486;51.442;6.778;2023-04-30T10:40:01;102027.72;;;15.24;63.13
67697;BME280;54486;51.442;6.778;2023-04-30T10:42:33;102040.81;;;15.30;63.32
67697;BME280;54486;51.442;6.778;2023-04-30T10:45:02;102032.91;;;15.29;60.86
67697;BME280;54486;51.442;6.778;2023-04-30T10:47:29;102031.94;;;15.47;61.28
67697;BME280;54486;51.442;6.778;2023-04-30T10:50:03;102024.97;;;15.40;61.27
67697;BME280;54486;51.442;6.778;2023-04-30T10:52:31;102017.94;;;15.38;61.24
67697;BME280;54486;51.442;6.778;2023-04-30T10:55:03;102013.38;;;15.69;61.74
67697;BME280;54486;51.442;6.778;2023-04-30T10:57:30;102013.16;;;15.92;60.61
67697;BME280;54486;51.442;6.778;2023-04-30T11:02:41;102004.19;;;16.10;58.79
67697;BME280;54486;51.442;6.778;2023-04-30T11:05:10;101991.13;;;15.99;58.71
67697;BME280;54486;51.442;6.778;2023-04-30T11:07:49;101996.28;;;16.08;60.22
67697;BME280;54486;51.442;6.778;2023-04-30T11:10:20;101997.25;;;16.04;59.01
67697;BME280;54486;51.442;6.778;2023-04-30T11:12:49;101984.16;;;15.98;59.03
67697;BME280;54486;51.442;6.778;2023-04-30T11:15:18;101987.69;;;15.94;58.32
67697;BME280;54486;51.442;6.778;2023-04-30T11:17:49;101989.47;;;15.92;58.27
67697;BME280;54486;51.442;6.778;2023-04-30T11:20:21;101986.88;;;15.87;59.39
67697;BME280;54486;51.442;6.778;2023-04-30T11:25:43;101981.56;;;15.91;59.26
67697;BME280;54486;51.442;6.778;2023-04-30T11:28:16;101977.13;;;15.97;58.82
67697;BME280;54486;51.442;6.778;2023-04-30T11:30:56;101981.41;;;16.06;57.22
67697;BME280;54486;51.442;6.778;2023-04-30T11:33:25;101975.31;;;16.02;58.28
67697;BME280;54486;51.442;6.778;2023-04-30T11:35:55;101973.41;;;16.16;57.41
67697;BME280;54486;51.442;6.778;2023-04-30T11:38:27;101978.59;;;16.22;57.46
67697;BME280;54486;51.442;6.778;2023-04-30T11:40:58;101972.41;;;16.26;57.54
67697;BME280;54486;51.442;6.778;2023-04-30T11:43:27;101980.28;;;16.28;56.24
67697;BME280;54486;51.442;6.778;2023-04-30T11:46:11;101969.72;;;16.32;55.90
67697;BME280;54486;51.442;6.778;2023-04-30T11:48:40;101966.13;;;16.39;56.11
67697;BME280;54486;51.442;6.778;2023-04-30T11:51:18;101968.53;;;16.56;56.17
67697;BME280;54486;51.442;6.778;2023-04-30T11:53:49;101965.91;;;16.58;55.80
67697;BME280;54486;51.442;6.778;2023-04-30T11:56:20;101967.53;;;16.68;55.75
67697;BME280;54486;51.442;6.778;2023-04-30T11:58:49;101967.34;;;16.80;56.41
67697;BME280;54486;51.442;6.778;2023-04-30T12:01:17;101964.97;;;17.23;52.46
67697;BME280;54486;51.442;6.778;2023-04-30T12:03:49;101954.38;;;17.24;51.26
67697;BME280;54486;51.442;6.778;2023-04-30T12:06:23;101952.44;;;17.35;52.38
67697;BME280;54486;51.442;6.778;2023-04-30T12:08:52;101953.00;;;17.53;52.99
67697;BME280;54486;51.442;6.778;2023-04-30T12:11:25;101949.50;;;17.54;51.89
67697;BME280;54486;51.442;6.778;2023-04-30T12:13:54;101949.50;;;17.54;51.53
67697;BME280;54486;51.442;6.778;2023-04-30T12:16:23;101943.25;;;17.61;51.98
67697;BME280;54486;51.442;6.778;2023-04-30T12:18:51;101943.09;;;17.68;51.61
67697;BME280;54486;51.442;6.778;2023-04-30T12:21:20;101932.28;;;17.82;51.95
67697;BME280;54486;51.442;6.778;2023-04-30T12:23:48;101940.84;;;17.96;51.04
67697;BME280;54486;51.442;6.778;2023-04-30T12:26:16;101937.09;;;18.06;51.18
67697;BME280;54486;51.442;6.778;2023-04-30T12:28:46;101930.13;;;18.02;50.57
67697;BME280;54486;51.442;6.778;2023-04-30T12:31:13;101937.88;;;18.11;51.14
67697;BME280;54486;51.442;6.778;2023-04-30T12:33:41;101926.91;;;18.31;50.92
67697;BME280;54486;51.442;6.778;2023-04-30T12:36:12;101925.78;;;18.42;50.55
67697;BME280;54486;51.442;6.778;2023-04-30T12:38:42;101936.28;;;18.45;48.15
67697;BME280;54486;51.442;6.778;2023-04-30T12:41:13;101935.13;;;18.59;48.64
67697;BME280;54486;51.442;6.778;2023-04-30T12:43:41;101926.94;;;18.71;47.98
67697;BME280;54486;51.442;6.778;2023-04-30T12:46:08;101926.88;;;18.74;47.89
67697;BME280;54486;51.442;6.778;2023-04-30T12:48:43;101924.94;;;18.82;48.05
67697;BME280;54486;51.442;6.778;2023-04-30T12:51:18;101924.50;;;19.00;48.63
67697;BME280;54486;51.442;6.778;2023-04-30T12:53:45;101927.00;;;19.43;48.42
67697;BME280;54486;51.442;6.778;2023-04-30T12:56:15;101906.50;;;19.82;46.49
67697;BME280;54486;51.442;6.778;2023-04-30T12:58:45;101916.44;;;20.06;45.26
67697;BME280;54486;51.442;6.778;2023-04-30T13:01:16;101899.91;;;20.58;46.17
67697;BME280;54486;51.442;6.778;2023-04-30T13:03:43;101902.28;;;21.21;44.56
67697;BME280;54486;51.442;6.778;2023-04-30T13:06:13;101900.16;;;22.06;42.40
67697;BME280;54486;51.442;6.778;2023-04-30T13:08:40;101898.72;;;21.98;41.10
67697;BME280;54486;51.442;6.778;2023-04-30T13:11:23;101896.00;;;22.23;41.45
67697;BME280;54486;51.442;6.778;2023-04-30T13:13:52;101893.81;;;22.79;40.36
67697;BME280;54486;51.442;6.778;2023-04-30T13:16:22;101892.34;;;23.35;39.29
67697;BME280;54486;51.442;6.778;2023-04-30T13:18:53;101894.06;;;23.16;38.19
67697;BME280;54486;51.442;6.778;2023-04-30T13:21:22;101887.16;;;22.45;39.08
67697;BME280;54486;51.442;6.778;2023-04-30T13:23:50;101891.00;;;21.66;41.06
67697;BME280;54486;51.442;6.778;2023-04-30T13:26:20;101888.19;;;22.18;40.96
67697;BME280;54486;51.442;6.778;2023-04-30T13:28:49;101875.44;;;22.73;38.90